createdAt,value
2018-05-13T00:02:27.454Z,28.77
2018-05-13T00:05:00.592Z,31.87
2018-05-13T00:07:33.749Z,27.20
2018-05-13T00:10:06.869Z,27.37
2018-05-13T00:12:40.234Z,27.80
2018-05-13T00:15:13.577Z,29.43
2018-05-13T00:17:46.272Z,31.20
2018-05-13T00:20:19.572Z,29.40
2018-05-13T00:22:52.455Z,29.17
2018-05-13T00:25:25.028Z,29.23
2018-05-13T00:27:57.675Z,29.23
2018-05-13T00:30:30.277Z,27.07
2018-05-13T00:33:02.777Z,28.93
2018-05-13T00:35:35.982Z,27.57
2018-05-13T00:38:08.475Z,25.87
2018-05-13T00:40:41.213Z,28.70
2018-05-13T00:43:13.597Z,25.70
2018-05-13T00:45:46.082Z,26.73
2018-05-13T00:48:18.559Z,25.60
2018-05-13T00:50:50.942Z,26.87
2018-05-13T00:53:23.594Z,26.90
2018-05-13T00:55:56.051Z,23.00
2018-05-13T00:58:28.644Z,24.90
2018-05-13T01:01:01.306Z,24.27
2018-05-13T01:03:34.112Z,22.97
2018-05-13T01:06:06.652Z,23.30
2018-05-13T01:08:38.984Z,22.53
2018-05-13T01:11:11.422Z,22.83
2018-05-13T01:13:44.734Z,22.87
2018-05-13T01:16:17.244Z,21.80
2018-05-13T01:18:49.683Z,23.50
2018-05-13T01:21:22.176Z,20.10
2018-05-13T01:23:54.776Z,21.07
2018-05-13T01:26:27.207Z,19.53
2018-05-13T01:28:59.678Z,21.57
2018-05-13T01:31:32.094Z,22.47
2018-05-13T01:34:04.514Z,19.47
2018-05-13T01:36:37.200Z,22.07
2018-05-13T01:39:09.623Z,19.63
2018-05-13T01:41:42.003Z,18.77
2018-05-13T01:44:14.420Z,18.93
2018-05-13T01:46:46.865Z,18.40
2018-05-13T01:49:19.326Z,18.87
2018-05-13T01:51:51.642Z,17.43
2018-05-13T01:54:24.111Z,17.87
2018-05-13T01:56:56.547Z,16.23
2018-05-13T01:59:29.039Z,16.50
2018-05-13T02:02:01.531Z,17.10
2018-05-13T02:04:34.894Z,15.67
2018-05-13T02:07:07.288Z,15.87
2018-05-13T02:09:39.709Z,15.83
2018-05-13T02:12:12.699Z,15.70
2018-05-13T02:14:45.480Z,15.40
2018-05-13T02:17:17.837Z,15.33
2018-05-13T02:19:50.902Z,16.37
2018-05-13T02:22:23.359Z,16.97
2018-05-13T02:24:55.836Z,15.13
2018-05-13T02:27:28.482Z,15.60
2018-05-13T02:30:00.858Z,14.97
2018-05-13T02:32:34.323Z,15.90
2018-05-13T02:35:07.779Z,15.63
2018-05-13T02:37:40.937Z,14.30
2018-05-13T02:40:13.597Z,14.47
2018-05-13T02:42:46.043Z,14.07
2018-05-13T02:45:19.257Z,14.73
2018-05-13T02:47:51.713Z,15.07
2018-05-13T02:50:24.153Z,16.20
2018-05-13T02:52:56.516Z,15.27
2018-05-13T02:55:29.733Z,15.30
2018-05-13T02:58:02.919Z,14.47
2018-05-13T03:00:35.413Z,15.30
2018-05-13T03:03:08.037Z,14.60
2018-05-13T03:05:40.823Z,14.43
2018-05-13T03:08:13.470Z,15.47
2018-05-13T03:10:46.006Z,14.30
2018-05-13T03:13:18.559Z,15.33
2018-05-13T03:15:51.132Z,14.80
2018-05-13T03:18:23.554Z,15.83
2018-05-13T03:20:56.010Z,13.90
2018-05-13T03:23:28.587Z,14.70
2018-05-13T03:26:01.078Z,14.07
2018-05-13T03:28:33.540Z,14.73
2018-05-13T03:31:05.949Z,15.03
2018-05-13T03:33:38.307Z,14.43
2018-05-13T03:36:10.669Z,16.43
2018-05-13T03:38:43.128Z,15.10
2018-05-13T03:41:15.498Z,15.87
2018-05-13T03:43:48.023Z,15.73
2018-05-13T03:46:21.364Z,17.60
2018-05-13T03:48:54.223Z,16.50
2018-05-13T03:51:26.835Z,17.40
2018-05-13T03:53:59.265Z,16.57
2018-05-13T03:56:31.650Z,16.30
2018-05-13T03:59:04.035Z,17.20
2018-05-13T04:01:36.408Z,16.70
2018-05-13T04:04:08.868Z,15.93
2018-05-13T04:06:41.303Z,16.10
2018-05-13T04:09:26.133Z,15.50
2018-05-13T04:12:11.783Z,17.67
2018-05-13T04:14:56.599Z,18.30
2018-05-13T04:17:29.073Z,17.27
2018-05-13T04:20:02.251Z,16.33
2018-05-13T04:22:35.004Z,17.93
2018-05-13T04:25:07.588Z,17.20
2018-05-13T04:27:40.046Z,16.30
2018-05-13T04:30:12.643Z,16.80
2018-05-13T04:32:45.748Z,17.40
2018-05-13T04:35:18.228Z,18.50
2018-05-13T04:37:50.879Z,16.00
2018-05-13T04:40:23.755Z,16.43
2018-05-13T04:42:56.228Z,17.67
2018-05-13T04:45:28.651Z,17.10
2018-05-13T04:48:01.315Z,17.53
2018-05-13T04:50:33.807Z,17.70
2018-05-13T04:53:06.174Z,17.87
2018-05-13T04:55:38.579Z,17.90
2018-05-13T04:58:11.012Z,17.23
2018-05-13T05:00:43.394Z,17.40
2018-05-13T05:03:16.543Z,17.57
2018-05-13T05:05:49.167Z,17.37
2018-05-13T05:08:21.621Z,18.83
2018-05-13T05:10:54.144Z,19.00
2018-05-13T05:13:26.822Z,19.37
2018-05-13T05:15:59.299Z,19.50
2018-05-13T05:18:31.729Z,18.85
2018-05-13T05:21:04.300Z,17.73
2018-05-13T05:23:37.429Z,20.03
2018-05-13T05:26:09.865Z,19.15
2018-05-13T05:28:43.651Z,19.43
2018-05-13T05:31:17.193Z,20.25
2018-05-13T05:33:49.734Z,18.50
2018-05-13T05:36:22.210Z,18.90
2018-05-13T05:38:54.933Z,19.52
2018-05-13T05:41:27.912Z,19.25
2018-05-13T05:44:00.560Z,19.20
2018-05-13T05:46:33.706Z,18.58
2018-05-13T05:49:06.953Z,20.48
2018-05-13T05:51:39.477Z,19.20
2018-05-13T05:54:12.128Z,19.10
2018-05-13T05:56:44.505Z,19.58
2018-05-13T05:59:17.639Z,19.33
2018-05-13T06:01:50.164Z,18.62
2018-05-13T06:04:23.364Z,19.98
2018-05-13T06:06:55.934Z,22.02
2018-05-13T06:09:29.708Z,19.83
2018-05-13T06:12:02.409Z,19.55
2018-05-13T06:14:35.709Z,20.40
2018-05-13T06:17:08.300Z,21.50
2018-05-13T06:19:41.062Z,17.98
2018-05-13T06:22:13.704Z,19.10
2018-05-13T06:24:46.931Z,19.17
2018-05-13T06:27:19.579Z,18.23
2018-05-13T06:29:52.764Z,18.90
2018-05-13T06:32:25.178Z,17.42
2018-05-13T06:34:59.083Z,17.15
2018-05-13T06:37:31.669Z,17.00
2018-05-13T06:40:04.391Z,17.62
2018-05-13T06:42:37.029Z,17.45
2018-05-13T06:45:09.645Z,17.95
2018-05-13T06:47:42.018Z,16.62
2018-05-13T06:50:14.486Z,17.33
2018-05-13T06:52:46.965Z,16.92
2018-05-13T06:55:19.682Z,17.83
2018-05-13T06:57:52.318Z,15.40
2018-05-13T07:00:25.618Z,16.67
2018-05-13T07:02:58.229Z,16.30
2018-05-13T07:05:30.873Z,15.07
2018-05-13T07:08:03.622Z,15.90
2018-05-13T07:10:36.163Z,13.85
2018-05-13T07:13:08.819Z,14.55
2018-05-13T07:15:41.278Z,15.48
2018-05-13T07:18:14.589Z,14.63
2018-05-13T07:20:47.728Z,15.02
2018-05-13T07:23:20.705Z,15.63
2018-05-13T07:25:53.210Z,15.23
2018-05-13T07:28:25.701Z,16.00
2018-05-13T07:30:58.362Z,16.85
2018-05-13T07:33:31.914Z,15.60
2018-05-13T07:36:04.411Z,14.93
2018-05-13T07:38:36.880Z,16.20
2018-05-13T07:41:09.277Z,15.18
2018-05-13T07:43:41.945Z,14.60
2018-05-13T07:46:14.736Z,14.02
2018-05-13T07:48:48.030Z,13.43
2018-05-13T07:51:20.478Z,13.85
2018-05-13T07:53:52.948Z,12.82
2018-05-13T07:56:25.630Z,13.55
2018-05-13T07:58:58.164Z,14.20
2018-05-13T08:01:30.697Z,14.02
2018-05-13T08:04:03.454Z,14.32
2018-05-13T08:06:36.034Z,13.27
2018-05-13T08:09:09.427Z,13.80
2018-05-13T08:11:42.879Z,13.75
2018-05-13T08:14:15.297Z,13.27
2018-05-13T08:16:47.910Z,13.40
2018-05-13T08:19:20.396Z,13.73
2018-05-13T08:21:53.086Z,14.02
2018-05-13T08:24:26.445Z,13.68
2018-05-13T08:26:58.891Z,14.15
2018-05-13T08:29:32.249Z,13.68
2018-05-13T08:32:04.696Z,14.80
2018-05-13T08:34:37.206Z,13.10
2018-05-13T08:37:09.910Z,13.23
2018-05-13T08:39:42.313Z,14.60
2018-05-13T08:42:14.965Z,12.63
2018-05-13T08:44:48.090Z,13.15
2018-05-13T08:47:20.504Z,14.98
2018-05-13T08:49:53.318Z,13.52
2018-05-13T08:52:25.991Z,14.85
2018-05-13T08:54:58.568Z,12.25
2018-05-13T08:57:32.095Z,12.10
2018-05-13T09:00:04.763Z,13.40
2018-05-13T09:02:37.677Z,13.55
2018-05-13T09:05:10.128Z,13.10
2018-05-13T09:07:43.129Z,12.05
2018-05-13T09:10:15.736Z,10.85
2018-05-13T09:12:48.430Z,12.05
2018-05-13T09:15:21.079Z,11.75
2018-05-13T09:17:54.489Z,12.32
2018-05-13T09:20:27.628Z,12.60
2018-05-13T09:23:00.100Z,11.88
2018-05-13T09:25:33.302Z,12.35
2018-05-13T09:28:05.754Z,15.20
2018-05-13T09:30:38.522Z,12.37
2018-05-13T09:33:11.460Z,10.75
2018-05-13T09:35:43.953Z,9.93
2018-05-13T09:38:16.871Z,9.32
2018-05-13T09:40:49.484Z,11.23
2018-05-13T09:43:21.876Z,10.05
2018-05-13T09:45:54.387Z,10.57
2018-05-13T09:48:27.086Z,9.98
2018-05-13T09:50:59.827Z,10.07
2018-05-13T09:53:32.566Z,10.68
2018-05-13T09:56:05.166Z,12.20
2018-05-13T09:58:38.373Z,11.18
2018-05-13T10:01:11.514Z,11.80
2018-05-13T10:03:44.805Z,11.02
2018-05-13T10:06:17.481Z,11.88
2018-05-13T10:08:49.946Z,11.73
2018-05-13T10:11:22.460Z,10.60
2018-05-13T10:13:55.224Z,11.30
2018-05-13T10:16:27.926Z,11.65
2018-05-13T10:19:00.635Z,11.32
2018-05-13T10:21:33.805Z,10.93
2018-05-13T10:24:07.056Z,11.45
2018-05-13T10:26:39.720Z,11.43
2018-05-13T10:29:12.500Z,11.75
2018-05-13T10:31:45.092Z,12.37
2018-05-13T10:34:17.849Z,10.90
2018-05-13T10:36:51.028Z,11.38
2018-05-13T10:39:23.554Z,14.18
2018-05-13T10:41:56.116Z,10.65
2018-05-13T10:44:28.802Z,10.77
2018-05-13T10:47:01.984Z,12.60
2018-05-13T10:49:34.459Z,11.32
2018-05-13T10:52:07.728Z,10.50
2018-05-13T10:54:41.024Z,11.60
2018-05-13T10:57:13.626Z,10.80
2018-05-13T10:59:46.722Z,11.38
2018-05-13T11:02:19.204Z,11.07
2018-05-13T11:04:51.906Z,10.30
2018-05-13T11:07:24.601Z,11.45
2018-05-13T11:09:57.219Z,10.88
2018-05-13T11:12:29.914Z,10.50
2018-05-13T11:15:03.861Z,9.35
2018-05-13T11:17:36.313Z,9.50
2018-05-13T11:20:09.050Z,9.38
2018-05-13T11:22:41.753Z,9.75
2018-05-13T11:25:14.379Z,9.48
2018-05-13T11:27:46.690Z,9.32
2018-05-13T11:30:19.141Z,9.18
2018-05-13T11:32:51.698Z,9.23
2018-05-13T11:35:24.260Z,9.07
2018-05-13T11:37:57.004Z,9.82
2018-05-13T11:40:29.677Z,10.95
2018-05-13T11:43:02.104Z,9.02
2018-05-13T11:45:34.725Z,9.98
2018-05-13T11:48:07.293Z,9.80
2018-05-13T11:50:39.845Z,9.02
2018-05-13T11:53:12.349Z,9.02
2018-05-13T11:55:45.685Z,9.10
2018-05-13T11:58:18.131Z,8.95
2018-05-13T12:00:50.755Z,9.00
2018-05-13T12:03:23.421Z,9.75
2018-05-13T12:05:56.583Z,8.68
2018-05-13T12:08:29.866Z,9.32
2018-05-13T12:11:02.594Z,8.75
2018-05-13T12:13:35.200Z,8.90
2018-05-13T12:16:07.857Z,10.30
2018-05-13T12:18:40.341Z,8.90
2018-05-13T12:21:12.911Z,10.05
2018-05-13T12:23:45.625Z,8.50
2018-05-13T12:26:18.315Z,9.52
2018-05-13T12:28:50.769Z,11.50
2018-05-13T12:31:23.406Z,9.30
2018-05-13T12:33:55.865Z,9.65
2018-05-13T12:36:28.620Z,10.10
2018-05-13T12:39:01.284Z,9.88
2018-05-13T12:41:34.143Z,9.75
2018-05-13T12:44:07.581Z,9.95
2018-05-13T12:46:40.229Z,11.00
2018-05-13T12:49:13.636Z,10.05
2018-05-13T12:51:46.823Z,10.93
2018-05-13T12:54:19.536Z,10.43
2018-05-13T12:56:51.991Z,10.35
2018-05-13T12:59:24.905Z,9.63
2018-05-13T13:01:57.595Z,10.18
2018-05-13T13:04:30.960Z,9.80
2018-05-13T13:07:03.532Z,9.45
2018-05-13T13:09:37.011Z,9.95
2018-05-13T13:12:09.757Z,10.75
2018-05-13T13:14:42.393Z,9.85
2018-05-13T13:17:15.176Z,10.05
2018-05-13T13:19:48.271Z,42.70
2018-05-13T13:22:20.936Z,45.47
2018-05-13T13:24:53.516Z,51.08
2018-05-13T13:27:26.380Z,51.45
2018-05-13T13:29:58.996Z,55.90
2018-05-13T13:32:31.453Z,57.10
2018-05-13T13:35:04.076Z,58.63
2018-05-13T13:37:36.634Z,71.82
2018-05-13T13:40:09.227Z,82.85
2018-05-13T13:42:41.700Z,79.30
2018-05-13T13:45:14.677Z,94.28
2018-05-13T13:47:47.262Z,97.82
2018-05-13T13:50:19.859Z,101.35
2018-05-13T13:52:53.883Z,98.87
2018-05-13T13:55:26.509Z,104.22
2018-05-13T13:57:59.262Z,101.50
2018-05-13T14:00:32.013Z,99.50
2018-05-13T14:03:04.590Z,107.57
2018-05-13T14:05:37.108Z,104.73
2018-05-13T14:08:09.813Z,128.70
2018-05-13T14:10:42.543Z,132.37
2018-05-13T14:13:15.240Z,134.63
2018-05-13T14:15:47.929Z,147.47
2018-05-13T14:18:20.406Z,155.57
2018-05-13T14:20:53.746Z,150.90
2018-05-13T14:23:26.266Z,199.97
2018-05-13T14:25:59.817Z,200.37
2018-05-13T14:28:32.377Z,253.63
2018-05-13T14:31:04.888Z,339.83
2018-05-13T14:33:37.609Z,380.63
2018-05-13T14:36:10.418Z,255.17
2018-05-13T14:38:43.347Z,503.03
2018-05-13T14:41:16.297Z,378.00
2018-05-13T14:43:50.030Z,680.77
2018-05-13T14:46:23.633Z,341.80
2018-05-13T14:48:57.292Z,532.90
2018-05-13T14:51:30.828Z,430.00
2018-05-13T14:54:03.675Z,282.73
2018-05-13T14:56:37.945Z,263.30
2018-05-13T14:59:11.897Z,207.57
2018-05-13T15:01:45.371Z,221.53
2018-05-13T15:04:18.275Z,230.13
2018-05-13T15:06:51.077Z,217.33
2018-05-13T15:09:25.260Z,211.47
2018-05-13T15:11:57.281Z,201.20
2018-05-13T15:14:30.475Z,252.83
2018-05-13T15:17:03.415Z,203.90
2018-05-13T15:19:36.959Z,221.33
2018-05-13T15:22:14.095Z,200.67
2018-05-13T15:24:46.586Z,212.90
2018-05-13T15:27:19.457Z,232.47
2018-05-13T15:29:52.060Z,202.53
2018-05-13T15:32:24.999Z,246.87
2018-05-13T15:34:58.350Z,161.90
2018-05-13T15:37:31.028Z,241.30
2018-05-13T15:40:03.690Z,217.00
2018-05-13T15:42:36.392Z,319.80
2018-05-13T15:45:09.150Z,272.90
2018-05-13T15:47:41.698Z,185.40
2018-05-13T15:50:14.555Z,197.40
2018-05-13T15:52:47.235Z,232.23
2018-05-13T15:55:19.905Z,249.83
2018-05-13T16:00:31.797Z,165.93
2018-05-13T16:03:04.455Z,183.77
2018-05-13T16:05:37.237Z,208.63
2018-05-13T16:08:09.942Z,219.97
2018-05-13T16:10:42.620Z,180.33
2018-05-13T16:13:16.138Z,194.43
2018-05-13T16:15:48.756Z,189.37
2018-05-13T16:18:21.587Z,217.97
2018-05-13T16:20:54.081Z,230.87
2018-05-13T16:23:26.649Z,180.90
2018-05-13T16:26:00.631Z,236.77
2018-05-13T16:28:33.299Z,182.57
2018-05-13T16:31:05.860Z,126.07
2018-05-13T16:33:38.444Z,144.80
2018-05-13T16:36:11.219Z,118.77
2018-05-13T16:38:44.149Z,129.27
2018-05-13T16:41:17.509Z,143.47
2018-05-13T16:43:50.269Z,194.83
2018-05-13T16:46:23.061Z,143.03
2018-05-13T16:48:55.602Z,142.60
2018-05-13T16:51:28.857Z,165.80
2018-05-13T16:54:01.570Z,145.20
2018-05-13T16:56:34.542Z,147.37
2018-05-13T16:59:07.246Z,158.93
2018-05-13T17:01:40.686Z,149.23
2018-05-13T17:04:13.868Z,180.67
2018-05-13T17:06:46.588Z,192.20
2018-05-13T17:09:19.354Z,117.50
2018-05-13T17:11:52.001Z,126.27
2018-05-13T17:14:24.603Z,132.23
2018-05-13T17:16:57.307Z,142.37
2018-05-13T17:19:30.157Z,146.80
2018-05-13T17:22:02.832Z,188.67
2018-05-13T17:24:35.291Z,149.70
2018-05-13T17:27:07.873Z,140.33
2018-05-13T17:29:40.770Z,132.53
2018-05-13T17:32:13.282Z,133.63
2018-05-13T17:34:45.957Z,135.80
2018-05-13T17:37:18.884Z,191.73
2018-05-13T17:39:51.229Z,121.57
2018-05-13T17:42:24.213Z,123.43
2018-05-13T17:44:56.677Z,169.90
2018-05-13T17:47:30.011Z,147.37
2018-05-13T17:50:03.188Z,128.77
2018-05-13T17:52:35.767Z,132.00
2018-05-13T17:55:08.713Z,108.77
2018-05-13T17:57:42.128Z,128.00
2018-05-13T18:00:15.155Z,122.47
2018-05-13T18:02:47.760Z,121.67
2018-05-13T18:05:20.436Z,110.37
2018-05-13T18:07:53.155Z,188.37
2018-05-13T18:10:25.808Z,162.30
2018-05-13T18:12:58.533Z,149.80
2018-05-13T18:15:31.136Z,144.17
2018-05-13T18:18:04.316Z,169.37
2018-05-13T18:20:37.138Z,130.20
2018-05-13T18:23:10.421Z,139.57
2018-05-13T18:25:43.159Z,130.67
2018-05-13T18:28:15.842Z,146.03
2018-05-13T18:30:48.509Z,129.77
2018-05-13T18:33:22.004Z,140.33
2018-05-13T18:35:54.888Z,139.77
2018-05-13T18:38:27.813Z,128.70
2018-05-13T18:41:00.569Z,129.53
2018-05-13T18:43:34.019Z,127.77
2018-05-13T18:46:06.879Z,145.17
2018-05-13T18:48:39.693Z,145.80
2018-05-13T18:51:13.252Z,128.90
2018-05-13T18:53:46.557Z,137.17
2018-05-13T18:56:20.222Z,116.90
2018-05-13T18:58:53.334Z,127.50
2018-05-13T19:01:26.549Z,136.90
2018-05-13T19:03:59.365Z,128.13
2018-05-13T19:06:32.255Z,139.37
2018-05-13T19:09:05.311Z,148.90
2018-05-13T19:11:38.641Z,135.47
2018-05-13T19:14:11.489Z,137.90
2018-05-13T19:16:44.844Z,128.57
2018-05-13T19:19:18.632Z,122.53
2018-05-13T19:21:51.416Z,129.40
2018-05-13T19:24:24.875Z,113.37
2018-05-13T19:26:58.507Z,132.07
2018-05-13T19:29:31.606Z,142.87
2018-05-13T19:32:04.383Z,144.07
2018-05-13T19:34:37.935Z,151.50
2018-05-13T19:37:10.701Z,168.77
2018-05-13T19:39:43.665Z,153.73
2018-05-13T19:42:16.945Z,152.57
2018-05-13T19:44:49.857Z,139.43
2018-05-13T19:47:23.121Z,205.80
2018-05-13T19:49:56.126Z,160.87
2018-05-13T19:52:29.725Z,163.30
2018-05-13T19:55:03.209Z,145.07
2018-05-13T19:57:37.541Z,171.17
2018-05-13T20:00:12.342Z,161.47
2018-05-13T20:02:45.920Z,181.63
2018-05-13T20:05:19.276Z,199.23
2018-05-13T20:07:52.594Z,151.73
2018-05-13T20:10:25.666Z,170.07
2018-05-13T20:12:59.439Z,117.33
2018-05-13T20:15:33.749Z,121.80
2018-05-13T20:18:06.492Z,143.53
2018-05-13T20:20:40.052Z,155.37
2018-05-13T20:23:24.183Z,113.17
2018-05-13T20:25:56.847Z,117.83
2018-05-13T20:28:29.654Z,123.97
2018-05-13T20:31:03.094Z,118.03
2018-05-13T20:33:36.786Z,136.83
2018-05-13T20:36:09.645Z,154.30
2018-05-13T20:38:42.232Z,114.83
2018-05-13T20:41:15.157Z,100.40
2018-05-13T20:43:47.947Z,105.10
2018-05-13T20:46:20.683Z,110.83
2018-05-13T20:48:53.704Z,103.50
2018-05-13T20:51:26.913Z,90.07
2018-05-13T20:54:00.076Z,101.80
2018-05-13T20:56:33.374Z,100.33
2018-05-13T20:59:06.153Z,99.60
2018-05-13T21:01:38.907Z,104.70
2018-05-13T21:04:11.953Z,99.80
2018-05-13T21:06:44.602Z,111.57
2018-05-13T21:09:17.105Z,95.10
2018-05-13T21:11:49.706Z,98.33
2018-05-13T21:14:22.427Z,108.70
2018-05-13T21:16:55.513Z,99.00
2018-05-13T21:19:28.358Z,101.27
2018-05-13T21:22:01.666Z,103.27
2018-05-13T21:24:35.046Z,100.93
2018-05-13T21:27:08.442Z,104.30
2018-05-13T21:29:41.118Z,114.47
2018-05-13T21:32:13.867Z,106.63
2018-05-13T21:34:46.672Z,129.13
2018-05-13T21:37:19.196Z,111.23
2018-05-13T21:39:52.246Z,88.73
2018-05-13T21:42:25.882Z,113.33
2018-05-13T21:44:58.292Z,101.13
2018-05-13T21:47:30.758Z,143.77
2018-05-13T21:50:03.756Z,114.90
2018-05-13T21:52:36.239Z,122.73
2018-05-13T21:55:08.732Z,129.40
2018-05-13T21:57:41.572Z,128.40
2018-05-13T22:00:14.241Z,123.50
2018-05-13T22:02:46.786Z,151.47
2018-05-13T22:05:20.286Z,144.47
2018-05-13T22:07:52.898Z,131.20
2018-05-13T22:10:25.440Z,154.37
2018-05-13T22:12:58.819Z,157.37
2018-05-13T22:15:31.225Z,163.03
2018-05-13T22:18:04.397Z,128.37
2018-05-13T22:20:36.914Z,126.27
2018-05-13T22:23:09.355Z,157.03
2018-05-13T22:25:41.894Z,157.63
2018-05-13T22:28:14.837Z,148.87
2018-05-13T22:30:47.291Z,136.53
2018-05-13T22:33:20.441Z,181.17
2018-05-13T22:35:52.960Z,151.43
2018-05-13T22:38:25.313Z,153.77
2018-05-13T22:40:57.837Z,186.03
2018-05-13T22:43:30.937Z,179.87
2018-05-13T22:46:03.572Z,168.00
2018-05-13T22:48:36.013Z,178.33
2018-05-13T22:51:08.545Z,163.47
2018-05-13T22:53:41.142Z,141.70
2018-05-13T22:56:13.610Z,164.93
2018-05-13T22:58:46.050Z,155.00
2018-05-13T23:01:18.474Z,149.67
2018-05-13T23:03:51.210Z,149.40
2018-05-13T23:06:23.593Z,147.13
2018-05-13T23:08:56.272Z,147.67
2018-05-13T23:11:29.512Z,158.63
2018-05-13T23:14:02.711Z,153.20
2018-05-13T23:16:35.157Z,145.43
2018-05-13T23:19:07.883Z,191.73
2018-05-13T23:21:41.268Z,143.20
2018-05-13T23:24:13.996Z,181.43
2018-05-13T23:26:46.645Z,135.00
2018-05-13T23:29:19.322Z,207.27
2018-05-13T23:31:52.510Z,160.40
2018-05-13T23:34:25.049Z,168.23
2018-05-13T23:36:57.634Z,184.93
2018-05-13T23:39:30.048Z,153.07
2018-05-13T23:42:02.507Z,173.47
2018-05-13T23:44:35.195Z,147.50
2018-05-13T23:47:07.916Z,159.40
2018-05-13T23:49:40.543Z,141.80
2018-05-13T23:52:13.204Z,172.20
2018-05-13T23:54:45.750Z,155.30
2018-05-13T23:57:18.664Z,171.07
2018-05-13T23:59:51.119Z,160.87
